createdAt,value
2022-07-30T00:02:26.922Z,3.62
2022-07-30T00:06:43.044Z,3.80
2022-07-30T00:10:59.466Z,3.83
2022-07-30T00:15:16.643Z,4.30
2022-07-30T00:19:33.187Z,3.47
2022-07-30T00:24:01.223Z,3.55
2022-07-30T00:28:18.188Z,3.20
2022-07-30T00:32:34.256Z,3.28
2022-07-30T00:36:50.373Z,3.83
2022-07-30T00:41:06.330Z,3.78
2022-07-30T00:45:22.455Z,3.87
2022-07-30T00:49:42.582Z,3.70
2022-07-30T00:54:00.159Z,3.50
2022-07-30T00:58:16.283Z,4.25
2022-07-30T01:02:32.425Z,3.78
2022-07-30T01:06:48.567Z,3.70
2022-07-30T01:11:04.598Z,4.18
2022-07-30T01:15:21.849Z,4.55
2022-07-30T01:19:48.531Z,5.03
2022-07-30T01:24:33.569Z,5.28
2022-07-30T01:28:52.030Z,4.90
2022-07-30T01:33:10.880Z,5.55
2022-07-30T01:37:28.212Z,4.87
2022-07-30T01:41:44.511Z,4.80
2022-07-30T01:46:02.018Z,4.87
2022-07-30T01:50:20.053Z,5.20
2022-07-30T01:54:37.935Z,5.37
2022-07-30T01:58:55.854Z,5.80
2022-07-30T02:03:12.531Z,5.50
2022-07-30T02:07:36.780Z,5.60
2022-07-30T02:16:47.855Z,5.82
2022-07-30T02:21:07.572Z,6.37
2022-07-30T02:25:33.782Z,5.70
2022-07-30T02:29:50.861Z,5.67
2022-07-30T02:34:08.689Z,5.55
2022-07-30T02:38:27.991Z,5.68
2022-07-30T02:42:47.062Z,5.78
2022-07-30T02:47:04.507Z,5.32
2022-07-30T02:51:22.203Z,5.40
2022-07-30T02:55:40.908Z,4.75
2022-07-30T02:59:58.003Z,4.97
2022-07-30T03:04:16.419Z,4.70
2022-07-30T03:08:33.235Z,4.15
2022-07-30T03:12:49.865Z,3.83
2022-07-30T03:17:06.651Z,4.60
2022-07-30T03:21:26.129Z,4.43
2022-07-30T03:25:45.108Z,5.12
2022-07-30T03:30:02.608Z,4.32
2022-07-30T03:34:20.456Z,4.43
2022-07-30T03:38:38.238Z,4.70
2022-07-30T03:42:54.199Z,4.22
2022-07-30T03:47:10.421Z,4.97
2022-07-30T03:51:32.824Z,4.65
2022-07-30T03:55:49.409Z,4.75
2022-07-30T04:00:14.172Z,4.30
2022-07-30T04:04:30.527Z,6.40
2022-07-30T04:08:46.448Z,6.37
2022-07-30T04:13:05.425Z,4.87
2022-07-30T04:17:48.157Z,5.25
2022-07-30T04:22:04.956Z,5.15
2022-07-30T04:26:21.689Z,4.95
2022-07-30T04:30:38.032Z,5.82
2022-07-30T04:34:56.044Z,5.65
2022-07-30T04:39:12.487Z,5.82
2022-07-30T04:43:28.524Z,6.12
2022-07-30T04:47:44.560Z,6.10
2022-07-30T04:52:02.900Z,5.03
2022-07-30T04:56:20.748Z,5.50
2022-07-30T05:00:41.208Z,5.47
2022-07-30T05:04:59.435Z,5.68
2022-07-30T05:09:16.457Z,5.37
2022-07-30T05:13:34.319Z,5.68
2022-07-30T05:17:51.332Z,5.22
2022-07-30T05:22:07.456Z,6.05
2022-07-30T05:26:27.645Z,6.28
2022-07-30T05:30:44.048Z,6.03
2022-07-30T05:35:00.618Z,5.47
2022-07-30T05:39:17.221Z,5.60
2022-07-30T05:43:33.246Z,5.12
2022-07-30T05:47:49.304Z,5.87
2022-07-30T05:52:06.258Z,5.90
2022-07-30T05:56:22.320Z,5.70
2022-07-30T06:00:38.250Z,5.20
2022-07-30T06:04:54.283Z,5.05
2022-07-30T06:09:10.508Z,4.93
2022-07-30T06:13:26.518Z,5.03
2022-07-30T06:17:53.218Z,5.07
2022-07-30T06:22:14.293Z,4.95
2022-07-30T06:26:30.317Z,4.72
2022-07-30T06:30:48.195Z,4.43
2022-07-30T06:35:05.252Z,4.93
2022-07-30T06:39:56.557Z,5.05
2022-07-30T06:43:57.787Z,5.35
2022-07-30T06:48:13.872Z,5.12
2022-07-30T06:52:29.936Z,5.07
2022-07-30T06:56:45.948Z,5.15
2022-07-30T07:01:01.896Z,5.82
2022-07-30T07:05:18.228Z,5.50
2022-07-30T07:09:34.223Z,6.07
2022-07-30T07:13:54.708Z,6.07
2022-07-30T07:18:12.671Z,5.60
2022-07-30T07:22:28.672Z,5.87
2022-07-30T07:26:44.721Z,5.80
2022-07-30T07:31:00.845Z,6.22
2022-07-30T07:35:16.898Z,6.40
2022-07-30T07:39:32.979Z,6.53
2022-07-30T07:43:48.951Z,6.12
2022-07-30T07:48:05.431Z,6.18
2022-07-30T07:52:21.400Z,6.18
2022-07-30T07:56:37.281Z,5.65
2022-07-30T08:00:54.016Z,6.28
2022-07-30T08:05:12.570Z,6.40
2022-07-30T08:09:44.456Z,6.05
2022-07-30T08:14:01.026Z,5.30
2022-07-30T08:18:17.028Z,6.05
2022-07-30T08:22:33.001Z,5.50
2022-07-30T08:26:49.257Z,5.95
2022-07-30T08:31:05.576Z,5.78
2022-07-30T08:35:21.761Z,6.03
2022-07-30T08:39:37.780Z,5.22
2022-07-30T08:43:55.316Z,5.90
2022-07-30T08:48:16.692Z,5.85
2022-07-30T08:52:35.569Z,5.72
2022-07-30T08:56:51.810Z,6.00
2022-07-30T09:01:07.885Z,5.70
2022-07-30T09:05:24.715Z,6.25
2022-07-30T09:09:40.688Z,6.53
2022-07-30T09:14:08.662Z,6.18
2022-07-30T09:18:44.591Z,5.68
2022-07-30T09:23:02.772Z,7.43
2022-07-30T09:27:18.723Z,7.55
2022-07-30T09:31:52.307Z,7.40
2022-07-30T09:36:13.195Z,7.72
2022-07-30T09:40:32.503Z,7.12
2022-07-30T09:44:48.920Z,7.03
2022-07-30T09:49:25.898Z,6.28
2022-07-30T09:54:01.778Z,6.80
2022-07-30T10:02:54.693Z,6.87
2022-07-30T10:07:25.213Z,7.32
2022-07-30T10:11:41.909Z,7.40
2022-07-30T10:15:58.237Z,7.70
2022-07-30T10:20:14.927Z,8.18
2022-07-30T10:24:32.261Z,8.00
2022-07-30T10:28:49.948Z,7.85
2022-07-30T10:33:07.760Z,7.07
2022-07-30T10:37:26.142Z,6.35
2022-07-30T10:42:39.692Z,6.93
2022-07-30T10:47:07.113Z,5.65
2022-07-30T10:51:42.760Z,6.15
2022-07-30T10:56:22.365Z,5.95
2022-07-30T11:05:43.900Z,5.37
2022-07-30T11:10:05.188Z,5.28
2022-07-30T11:14:45.924Z,4.50
2022-07-30T11:19:55.521Z,4.45
2022-07-30T11:23:41.709Z,4.15
2022-07-30T11:27:58.103Z,4.57
2022-07-30T11:32:32.930Z,3.78
2022-07-30T11:37:21.807Z,3.60
2022-07-30T11:41:38.684Z,3.22
2022-07-30T11:46:29.730Z,3.45
2022-07-30T11:50:47.522Z,3.78
2022-07-30T11:55:05.399Z,3.03
2022-07-30T11:59:21.828Z,2.55
2022-07-30T12:03:40.482Z,2.08
2022-07-30T12:07:59.850Z,2.45
2022-07-30T12:12:25.830Z,2.00
2022-07-30T12:16:48.773Z,1.20
2022-07-30T12:25:25.171Z,1.20
2022-07-30T12:29:41.151Z,1.20
2022-07-30T12:33:59.224Z,1.20
2022-07-30T12:38:16.986Z,1.10
2022-07-30T12:42:33.402Z,1.40
2022-07-30T12:46:49.582Z,1.33
2022-07-30T12:51:11.039Z,1.17
2022-07-30T12:55:33.658Z,1.45
2022-07-30T13:00:01.702Z,1.70
2022-07-30T13:04:18.111Z,1.40
2022-07-30T13:08:52.180Z,1.30
2022-07-30T13:13:08.215Z,1.30
2022-07-30T13:17:24.183Z,0.98
2022-07-30T13:21:42.983Z,1.40
2022-07-30T13:26:07.529Z,1.30
2022-07-30T13:30:23.494Z,1.20
2022-07-30T13:34:41.634Z,1.37
2022-07-30T13:38:57.599Z,1.40
2022-07-30T13:43:13.647Z,1.37
2022-07-30T13:47:29.759Z,1.52
2022-07-30T13:51:45.769Z,1.40
2022-07-30T13:56:03.997Z,0.98
2022-07-30T14:00:20.063Z,1.40
2022-07-30T14:04:36.142Z,1.20
2022-07-30T14:08:52.155Z,1.55
2022-07-30T14:13:10.076Z,1.30
2022-07-30T14:17:26.183Z,1.40
2022-07-30T14:21:42.285Z,1.30
2022-07-30T14:25:58.501Z,1.70
2022-07-30T14:30:15.092Z,1.90
2022-07-30T14:34:31.310Z,1.90
2022-07-30T14:38:50.788Z,1.75
2022-07-30T14:43:08.242Z,1.83
2022-07-30T14:47:24.345Z,1.67
2022-07-30T14:51:40.705Z,1.30
2022-07-30T14:55:57.665Z,1.70
2022-07-30T15:00:17.040Z,1.30
2022-07-30T15:04:33.398Z,1.20
2022-07-30T15:08:49.577Z,1.27
2022-07-30T15:13:06.360Z,1.37
2022-07-30T15:17:24.148Z,1.20
2022-07-30T15:21:40.208Z,1.30
2022-07-30T15:25:56.215Z,1.40
2022-07-30T15:30:13.084Z,1.30
2022-07-30T15:34:34.292Z,1.25
2022-07-30T15:38:50.442Z,1.27
2022-07-30T15:43:07.771Z,1.12
2022-07-30T15:47:28.769Z,1.17
2022-07-30T15:51:48.846Z,1.30
2022-07-30T15:56:05.150Z,1.17
2022-07-30T16:00:21.139Z,1.23
2022-07-30T16:04:37.198Z,1.20
2022-07-30T16:08:53.820Z,1.30
2022-07-30T16:13:09.953Z,1.10
2022-07-30T16:17:26.369Z,1.15
2022-07-30T16:21:42.517Z,2.12
2022-07-30T16:25:58.572Z,1.40
2022-07-30T16:30:14.709Z,1.48
2022-07-30T16:34:30.833Z,1.20
2022-07-30T16:38:46.866Z,1.30
2022-07-30T16:43:02.870Z,1.30
2022-07-30T16:47:19.462Z,1.50
2022-07-30T16:51:35.532Z,1.42
2022-07-30T16:55:51.914Z,1.40
2022-07-30T17:00:09.476Z,1.40
2022-07-30T17:04:25.477Z,1.50
2022-07-30T17:08:42.039Z,1.33
2022-07-30T17:12:57.996Z,1.75
2022-07-30T17:17:14.833Z,1.73
2022-07-30T17:21:30.876Z,1.33
2022-07-30T17:25:46.950Z,1.70
2022-07-30T17:30:06.689Z,1.85
2022-07-30T17:34:22.782Z,1.65
2022-07-30T17:38:38.835Z,1.67
2022-07-30T17:42:54.946Z,1.77
2022-07-30T17:47:14.683Z,1.73
2022-07-30T17:51:35.904Z,1.85
2022-07-30T17:55:57.044Z,2.17
2022-07-30T18:00:14.683Z,2.47
2022-07-30T18:04:30.820Z,2.33
2022-07-30T18:08:46.875Z,2.20
2022-07-30T18:13:16.629Z,2.30
2022-07-30T18:17:39.594Z,2.30
2022-07-30T18:21:55.814Z,2.53
2022-07-30T18:26:12.133Z,2.70
2022-07-30T18:30:28.465Z,2.65
2022-07-30T18:34:45.657Z,2.37
2022-07-30T18:39:02.769Z,2.47
2022-07-30T18:43:19.176Z,3.03
2022-07-30T18:47:37.251Z,2.90
2022-07-30T18:51:53.730Z,2.60
2022-07-30T18:56:09.954Z,2.78
2022-07-30T19:00:35.093Z,3.17
2022-07-30T19:04:55.906Z,2.60
2022-07-30T19:09:17.211Z,2.92
2022-07-30T19:13:34.838Z,3.05
2022-07-30T19:17:51.992Z,3.30
2022-07-30T19:22:09.430Z,3.20
2022-07-30T19:26:25.564Z,2.70
2022-07-30T19:30:41.698Z,3.40
2022-07-30T19:34:57.955Z,3.08
2022-07-30T19:39:21.817Z,2.90
2022-07-30T19:43:38.330Z,3.03
2022-07-30T19:47:55.426Z,3.08
2022-07-30T19:52:25.236Z,3.40
2022-07-30T19:56:42.052Z,3.05
2022-07-30T20:01:02.522Z,3.35
2022-07-30T20:05:25.163Z,3.60
2022-07-30T20:09:48.552Z,4.00
2022-07-30T20:14:05.857Z,3.42
2022-07-30T20:18:29.045Z,3.30
2022-07-30T20:22:45.751Z,3.78
2022-07-30T20:27:10.178Z,4.22
2022-07-30T20:31:38.724Z,3.42
2022-07-30T20:35:58.827Z,3.95
2022-07-30T20:40:15.393Z,3.85
2022-07-30T20:44:32.544Z,4.37
2022-07-30T20:48:49.121Z,4.10
2022-07-30T20:53:05.231Z,3.83
2022-07-30T20:57:56.872Z,4.47
2022-07-30T21:01:58.383Z,4.85
2022-07-30T21:06:15.661Z,4.32
2022-07-30T21:10:31.923Z,4.37
2022-07-30T21:14:48.521Z,5.07
2022-07-30T21:19:05.901Z,5.05
2022-07-30T21:23:22.992Z,4.80
2022-07-30T21:27:40.695Z,4.22
2022-07-30T21:32:02.032Z,5.70
2022-07-30T21:36:25.038Z,5.50
2022-07-30T21:40:41.118Z,5.12
2022-07-30T21:44:57.118Z,4.90
2022-07-30T21:49:13.885Z,5.40
2022-07-30T21:53:44.832Z,5.70
2022-07-30T21:58:01.640Z,5.55
2022-07-30T22:02:19.790Z,6.25
2022-07-30T22:06:41.774Z,5.60
2022-07-30T22:10:58.263Z,5.60
2022-07-30T22:15:15.020Z,5.78
2022-07-30T22:19:31.243Z,5.68
2022-07-30T22:23:54.889Z,5.93
2022-07-30T22:28:15.576Z,6.20
2022-07-30T22:32:32.774Z,5.95
2022-07-30T22:36:48.880Z,5.90
2022-07-30T22:41:05.256Z,5.65
2022-07-30T22:45:36.048Z,5.95
2022-07-30T22:49:57.873Z,5.30
2022-07-30T22:54:14.706Z,5.95
2022-07-30T22:58:31.021Z,5.68
2022-07-30T23:02:48.440Z,5.47
2022-07-30T23:07:05.499Z,5.40
2022-07-30T23:11:21.686Z,5.43
2022-07-30T23:15:38.234Z,5.53
2022-07-30T23:19:54.291Z,5.80
2022-07-30T23:24:10.674Z,6.03
2022-07-30T23:28:27.279Z,6.10
2022-07-30T23:32:43.258Z,5.60
2022-07-30T23:37:03.078Z,6.20
2022-07-30T23:41:29.557Z,5.87
2022-07-30T23:45:46.882Z,5.62
2022-07-30T23:50:02.863Z,6.10
2022-07-30T23:54:19.258Z,5.03
2022-07-30T23:58:35.218Z,5.65
